createdAt,value
2023-02-27T00:00:22.907Z,100.00
2023-02-27T00:01:24.772Z,100.00
2023-02-27T00:02:27.627Z,100.00
2023-02-27T00:03:29.362Z,100.00
2023-02-27T00:04:33.384Z,100.00
2023-02-27T00:05:35.048Z,100.00
2023-02-27T00:06:37.680Z,100.00
2023-02-27T00:07:39.365Z,100.00
2023-02-27T00:08:42.051Z,100.00
2023-02-27T00:09:43.973Z,100.00
2023-02-27T00:10:46.603Z,100.00
2023-02-27T00:11:48.284Z,100.00
2023-02-27T00:12:50.961Z,100.00
2023-02-27T00:13:52.619Z,100.00
2023-02-27T00:14:55.239Z,100.00
2023-02-27T00:15:56.918Z,100.00
2023-02-27T00:16:59.564Z,100.00
2023-02-27T00:18:01.288Z,100.00
2023-02-27T00:19:04.777Z,100.00
2023-02-27T00:20:11.050Z,100.00
2023-02-27T00:21:13.686Z,100.00
2023-02-27T00:22:15.353Z,100.00
2023-02-27T00:23:17.995Z,100.00
2023-02-27T00:24:19.658Z,100.00
2023-02-27T00:25:22.319Z,100.00
2023-02-27T00:26:24.006Z,100.00
2023-02-27T00:27:26.636Z,100.00
2023-02-27T00:28:29.341Z,100.00
2023-02-27T00:29:32.211Z,100.00
2023-02-27T00:30:33.900Z,100.00
2023-02-27T00:31:36.570Z,100.00
2023-02-27T00:32:38.250Z,100.00
2023-02-27T00:33:40.889Z,100.00
2023-02-27T00:34:42.618Z,100.00
2023-02-27T00:35:46.624Z,100.00
2023-02-27T00:36:48.313Z,100.00
2023-02-27T00:37:50.934Z,100.00
2023-02-27T00:38:52.605Z,100.00
2023-02-27T00:39:55.232Z,100.00
2023-02-27T00:40:56.929Z,100.00
2023-02-27T00:41:59.561Z,100.00
2023-02-27T00:43:01.252Z,100.00
2023-02-27T00:44:03.892Z,100.00
2023-02-27T00:45:06.448Z,100.00
2023-02-27T00:46:10.203Z,100.00
2023-02-27T00:47:11.898Z,100.00
2023-02-27T00:48:14.518Z,100.00
2023-02-27T00:49:16.353Z,100.00
2023-02-27T00:50:19.242Z,100.00
2023-02-27T00:51:22.697Z,100.00
2023-02-27T00:52:25.443Z,100.00
2023-02-27T00:53:27.096Z,100.00
2023-02-27T00:54:29.861Z,100.00
2023-02-27T00:55:31.529Z,100.00
2023-02-27T00:56:34.665Z,100.00
2023-02-27T00:57:36.483Z,100.00
2023-02-27T00:58:39.129Z,100.00
2023-02-27T00:59:41.060Z,100.00
2023-02-27T01:00:43.696Z,100.00
2023-02-27T01:01:45.438Z,100.00
2023-02-27T01:02:48.131Z,100.00
2023-02-27T01:03:49.790Z,100.00
2023-02-27T01:04:52.431Z,100.00
2023-02-27T01:05:54.085Z,100.00
2023-02-27T01:06:58.100Z,100.00
2023-02-27T01:07:59.765Z,100.00
2023-02-27T01:09:02.409Z,100.00
2023-02-27T01:10:04.481Z,100.00
2023-02-27T01:11:07.128Z,100.00
2023-02-27T01:12:09.005Z,100.00
2023-02-27T01:13:11.624Z,100.00
2023-02-27T01:14:13.275Z,100.00
2023-02-27T01:15:15.908Z,100.00
2023-02-27T01:16:17.569Z,100.00
2023-02-27T01:17:20.246Z,100.00
2023-02-27T01:18:21.921Z,100.00
2023-02-27T01:19:24.620Z,100.00
2023-02-27T01:20:26.275Z,100.00
2023-02-27T01:21:29.155Z,100.00
2023-02-27T01:22:33.305Z,100.00
2023-02-27T01:23:35.944Z,100.00
2023-02-27T01:24:37.596Z,100.00
2023-02-27T01:25:40.400Z,100.00
2023-02-27T01:26:42.062Z,100.00
2023-02-27T01:27:44.740Z,100.00
2023-02-27T01:28:46.410Z,100.00
2023-02-27T01:29:49.094Z,100.00
2023-02-27T01:30:50.791Z,100.00
2023-02-27T01:31:53.464Z,100.00
2023-02-27T01:32:56.189Z,100.00
2023-02-27T01:33:57.850Z,100.00
2023-02-27T01:35:00.472Z,100.00
2023-02-27T01:36:02.173Z,100.00
2023-02-27T01:37:04.788Z,100.00
2023-02-27T01:38:07.795Z,100.00
2023-02-27T01:39:10.412Z,100.00
2023-02-27T01:40:13.498Z,100.00
2023-02-27T01:41:16.132Z,100.00
2023-02-27T01:42:19.544Z,100.00
2023-02-27T01:43:23.018Z,100.00
2023-02-27T01:44:25.800Z,100.00
2023-02-27T01:45:31.260Z,100.00
2023-02-27T01:46:33.119Z,100.00
2023-02-27T01:47:35.750Z,100.00
2023-02-27T01:48:37.722Z,100.00
2023-02-27T01:49:40.488Z,100.00
2023-02-27T01:50:45.703Z,100.00
2023-02-27T01:51:50.297Z,100.00
2023-02-27T01:52:53.755Z,100.00
2023-02-27T01:53:57.793Z,100.00
2023-02-27T01:54:59.430Z,100.00
2023-02-27T01:56:05.427Z,100.00
2023-02-27T01:57:07.146Z,100.00
2023-02-27T01:58:11.446Z,100.00
2023-02-27T01:59:13.130Z,100.00
2023-02-27T02:00:16.269Z,100.00
2023-02-27T02:01:18.133Z,100.00
2023-02-27T02:02:22.426Z,100.00
2023-02-27T02:03:26.433Z,100.00
2023-02-27T02:04:30.986Z,100.00
2023-02-27T02:05:32.622Z,100.00
2023-02-27T02:06:41.553Z,100.00
2023-02-27T02:07:43.193Z,100.00
2023-02-27T02:08:47.625Z,100.00
2023-02-27T02:09:53.265Z,100.00
2023-02-27T02:10:55.890Z,100.00
2023-02-27T02:11:57.568Z,100.00
2023-02-27T02:13:00.300Z,100.00
2023-02-27T02:14:02.828Z,100.00
2023-02-27T02:15:06.181Z,100.00
2023-02-27T02:16:22.038Z,100.00
2023-02-27T02:17:27.406Z,100.00
2023-02-27T02:18:32.062Z,100.00
2023-02-27T02:20:09.225Z,100.00
2023-02-27T02:21:44.494Z,100.00
2023-02-27T02:23:17.617Z,100.00
2023-02-27T02:25:08.852Z,100.00
2023-02-27T02:26:52.369Z,100.00
2023-02-27T02:28:00.273Z,100.00
2023-02-27T02:29:33.580Z,100.00
2023-02-27T02:31:17.631Z,100.00
2023-02-27T02:32:59.832Z,100.00
2023-02-27T02:34:15.395Z,100.00
2023-02-27T02:35:46.854Z,100.00
2023-02-27T02:37:32.027Z,100.00
2023-02-27T02:38:51.412Z,100.00
2023-02-27T02:40:01.015Z,100.00
2023-02-27T02:41:04.615Z,100.00
2023-02-27T02:42:11.843Z,100.00
2023-02-27T02:43:15.180Z,100.00
2023-02-27T02:44:20.423Z,100.00
2023-02-27T02:45:25.751Z,100.00
2023-02-27T02:46:32.222Z,100.00
2023-02-27T02:47:35.936Z,100.00
2023-02-27T02:48:40.687Z,100.00
2023-02-27T02:49:44.003Z,100.00
2023-02-27T02:50:50.256Z,100.00
2023-02-27T02:51:53.558Z,100.00
2023-02-27T02:52:59.457Z,100.00
2023-02-27T02:54:04.297Z,100.00
2023-02-27T02:55:09.238Z,100.00
2023-02-27T02:56:12.934Z,100.00
2023-02-27T02:57:16.549Z,100.00
2023-02-27T02:58:21.764Z,100.00
2023-02-27T02:59:28.637Z,100.00
2023-02-27T03:00:31.813Z,100.00
2023-02-27T03:01:36.436Z,100.00
2023-02-27T03:02:39.455Z,100.00
2023-02-27T03:03:42.996Z,100.00
2023-02-27T03:04:46.704Z,100.00
2023-02-27T03:05:51.173Z,100.00
2023-02-27T03:06:54.953Z,100.00
2023-02-27T03:07:58.571Z,100.00
2023-02-27T03:09:05.507Z,100.00
2023-02-27T03:10:10.050Z,100.00
2023-02-27T03:11:11.668Z,100.00
2023-02-27T03:12:16.827Z,100.00
2023-02-27T03:13:20.899Z,100.00
2023-02-27T03:14:25.698Z,100.00
2023-02-27T03:15:28.256Z,100.00
2023-02-27T03:16:32.622Z,100.00
2023-02-27T03:17:39.112Z,100.00
2023-02-27T03:18:44.316Z,100.00
2023-02-27T03:19:48.712Z,100.00
2023-02-27T03:20:53.910Z,100.00
2023-02-27T03:21:56.795Z,100.00
2023-02-27T03:23:02.555Z,100.00
2023-02-27T03:24:06.820Z,100.00
2023-02-27T03:25:10.785Z,100.00
2023-02-27T03:26:14.006Z,100.00
2023-02-27T03:27:16.829Z,100.00
2023-02-27T03:28:19.344Z,100.00
2023-02-27T03:29:24.894Z,100.00
2023-02-27T03:30:28.597Z,100.00
2023-02-27T03:31:32.974Z,100.00
2023-02-27T03:32:38.208Z,100.00
2023-02-27T03:33:42.925Z,100.00
2023-02-27T03:34:44.547Z,100.00
2023-02-27T03:35:51.866Z,100.00
2023-02-27T03:36:56.890Z,100.00
2023-02-27T03:38:01.090Z,100.00
2023-02-27T03:39:06.228Z,100.00
2023-02-27T03:40:12.252Z,100.00
2023-02-27T03:41:14.868Z,100.00
2023-02-27T03:42:21.743Z,100.00
2023-02-27T03:43:27.990Z,100.00
2023-02-27T03:44:32.751Z,100.00
2023-02-27T03:45:37.495Z,100.00
2023-02-27T03:46:40.538Z,100.00
2023-02-27T03:47:42.145Z,100.00
2023-02-27T03:48:45.175Z,100.00
2023-02-27T03:49:46.801Z,100.00
2023-02-27T03:50:49.383Z,100.00
2023-02-27T03:51:51.003Z,100.00
2023-02-27T03:52:53.631Z,100.00
2023-02-27T03:53:57.617Z,100.00
2023-02-27T03:55:03.164Z,100.00
2023-02-27T03:56:05.656Z,100.00
2023-02-27T03:57:08.722Z,100.00
2023-02-27T03:58:10.329Z,100.00
2023-02-27T03:59:13.030Z,100.00
2023-02-27T04:00:16.302Z,100.00
2023-02-27T04:01:19.191Z,100.00
2023-02-27T04:02:20.780Z,100.00
2023-02-27T04:03:23.419Z,100.00
2023-02-27T04:04:25.406Z,100.00
2023-02-27T04:05:28.499Z,100.00
2023-02-27T04:06:48.745Z,100.00
2023-02-27T04:07:59.034Z,100.00
2023-02-27T04:09:03.439Z,100.00
2023-02-27T04:10:19.144Z,100.00
2023-02-27T04:11:41.427Z,100.00
2023-02-27T04:13:28.835Z,100.00
2023-02-27T04:14:36.637Z,100.00
2023-02-27T04:15:48.102Z,100.00
2023-02-27T04:17:09.178Z,100.00
2023-02-27T04:18:20.027Z,100.00
2023-02-27T04:19:46.244Z,100.00
2023-02-27T04:20:50.477Z,100.00
2023-02-27T04:21:57.090Z,100.00
2023-02-27T04:23:00.978Z,100.00
2023-02-27T04:24:05.331Z,100.00
2023-02-27T04:25:23.993Z,100.00
2023-02-27T04:26:27.877Z,100.00
2023-02-27T04:27:35.155Z,100.00
2023-02-27T04:28:41.426Z,100.00
2023-02-27T04:29:48.550Z,100.00
2023-02-27T04:30:58.903Z,100.00
2023-02-27T04:32:02.448Z,100.00
2023-02-27T04:33:08.407Z,100.00
2023-02-27T04:34:12.513Z,100.00
2023-02-27T04:35:17.310Z,100.00
2023-02-27T04:36:23.538Z,100.00
2023-02-27T04:37:28.480Z,100.00
2023-02-27T04:38:32.372Z,100.00
2023-02-27T04:39:36.008Z,100.00
2023-02-27T04:40:40.942Z,100.00
2023-02-27T04:41:44.686Z,100.00
2023-02-27T04:42:47.583Z,100.00
2023-02-27T04:43:50.162Z,100.00
2023-02-27T04:44:51.845Z,100.00
2023-02-27T04:45:54.497Z,100.00
2023-02-27T04:46:56.424Z,100.00
2023-02-27T04:48:00.155Z,100.00
2023-02-27T04:49:04.079Z,100.00
2023-02-27T04:50:09.536Z,100.00
2023-02-27T04:51:12.897Z,100.00
2023-02-27T04:52:17.040Z,100.00
2023-02-27T04:53:20.417Z,100.00
2023-02-27T04:54:24.284Z,100.00
2023-02-27T04:55:27.316Z,100.00
2023-02-27T04:56:32.352Z,100.00
2023-02-27T04:57:36.668Z,100.00
2023-02-27T04:58:40.988Z,100.00
2023-02-27T04:59:45.231Z,100.00
2023-02-27T05:00:50.494Z,100.00
2023-02-27T05:01:55.337Z,100.00
2023-02-27T05:02:59.791Z,100.00
2023-02-27T05:04:02.385Z,100.00
2023-02-27T05:05:08.798Z,100.00
2023-02-27T05:06:11.512Z,100.00
2023-02-27T05:07:15.502Z,100.00
2023-02-27T05:08:21.153Z,100.00
2023-02-27T05:09:27.427Z,100.00
2023-02-27T05:10:30.747Z,100.00
2023-02-27T05:11:37.563Z,100.00
2023-02-27T05:12:41.070Z,100.00
2023-02-27T05:13:45.672Z,100.00
2023-02-27T05:14:50.074Z,100.00
2023-02-27T05:15:53.983Z,100.00
2023-02-27T05:16:58.820Z,100.00
2023-02-27T05:18:02.982Z,100.00
2023-02-27T05:19:04.662Z,100.00
2023-02-27T05:20:08.729Z,100.00
2023-02-27T05:21:16.172Z,100.00
2023-02-27T05:22:24.337Z,100.00
2023-02-27T05:23:31.663Z,100.00
2023-02-27T05:24:36.690Z,100.00
2023-02-27T05:25:41.700Z,100.00
2023-02-27T05:26:56.077Z,100.00
2023-02-27T05:27:59.171Z,100.00
2023-02-27T05:29:04.194Z,100.00
2023-02-27T05:30:09.036Z,100.00
2023-02-27T05:31:16.323Z,100.00
2023-02-27T05:32:22.882Z,100.00
2023-02-27T05:33:27.355Z,100.00
2023-02-27T05:34:32.060Z,100.00
2023-02-27T05:35:36.897Z,100.00
2023-02-27T05:36:39.959Z,100.00
2023-02-27T05:37:44.567Z,100.00
2023-02-27T05:38:47.485Z,100.00
2023-02-27T05:39:50.060Z,100.00
2023-02-27T05:40:53.736Z,100.00
2023-02-27T05:41:59.247Z,100.00
2023-02-27T05:43:02.962Z,100.00
2023-02-27T05:44:07.496Z,100.00
2023-02-27T05:45:10.864Z,100.00
2023-02-27T05:46:15.637Z,100.00
2023-02-27T05:47:18.540Z,100.00
2023-02-27T05:48:22.594Z,100.00
2023-02-27T05:49:25.630Z,100.00
2023-02-27T05:50:30.793Z,100.00
2023-02-27T05:51:33.708Z,100.00
2023-02-27T05:52:36.298Z,100.00
2023-02-27T05:53:39.977Z,100.00
2023-02-27T05:54:43.983Z,100.00
2023-02-27T05:55:47.039Z,100.00
2023-02-27T05:56:50.127Z,100.00
2023-02-27T05:57:54.006Z,100.00
2023-02-27T05:58:58.634Z,100.00
2023-02-27T06:00:03.006Z,100.00
2023-02-27T06:01:06.268Z,100.00
2023-02-27T06:02:07.937Z,100.00
2023-02-27T06:03:10.559Z,100.00
2023-02-27T06:04:12.439Z,100.00
2023-02-27T06:05:15.786Z,100.00
2023-02-27T06:06:18.385Z,100.00
2023-02-27T06:07:20.960Z,100.00
2023-02-27T06:08:22.600Z,100.00
2023-02-27T06:09:25.207Z,100.00
2023-02-27T06:10:27.082Z,100.00
2023-02-27T06:11:29.675Z,100.00
2023-02-27T06:12:31.424Z,100.00
2023-02-27T06:13:35.334Z,100.00
2023-02-27T06:14:37.011Z,100.00
2023-02-27T06:15:39.591Z,100.00
2023-02-27T06:16:41.252Z,100.00
2023-02-27T06:17:43.874Z,100.00
2023-02-27T06:18:45.466Z,100.00
2023-02-27T06:19:48.303Z,100.00
2023-02-27T06:20:49.985Z,100.00
2023-02-27T06:21:52.590Z,100.00
2023-02-27T06:22:54.228Z,100.00
2023-02-27T06:23:56.867Z,100.00
2023-02-27T06:24:58.547Z,100.00
2023-02-27T06:26:01.132Z,100.00
2023-02-27T06:27:02.718Z,100.00
2023-02-27T06:28:05.692Z,100.00
2023-02-27T06:29:08.642Z,100.00
2023-02-27T06:30:12.463Z,100.00
2023-02-27T06:31:14.127Z,100.00
2023-02-27T06:32:16.787Z,100.00
2023-02-27T06:33:18.448Z,100.00
2023-02-27T06:34:21.023Z,100.00
2023-02-27T06:35:22.691Z,100.00
2023-02-27T06:36:25.546Z,100.00
2023-02-27T06:37:27.354Z,100.00
2023-02-27T06:38:29.949Z,100.00
2023-02-27T06:39:32.675Z,100.00
2023-02-27T06:40:35.323Z,100.00
2023-02-27T06:41:36.963Z,100.00
2023-02-27T06:42:39.642Z,100.00
2023-02-27T06:43:41.243Z,100.00
2023-02-27T06:44:45.184Z,100.00
2023-02-27T06:45:46.938Z,100.00
2023-02-27T06:46:49.508Z,100.00
2023-02-27T06:47:52.098Z,100.00
2023-02-27T06:48:53.719Z,100.00
2023-02-27T06:49:56.309Z,100.00
2023-02-27T06:50:57.978Z,100.00
2023-02-27T06:52:00.544Z,100.00
2023-02-27T06:53:02.169Z,100.00
2023-02-27T06:54:04.933Z,100.00
2023-02-27T06:55:08.194Z,100.00
2023-02-27T06:56:10.811Z,100.00
2023-02-27T06:57:12.448Z,100.00
2023-02-27T06:58:15.076Z,100.00
2023-02-27T06:59:16.680Z,100.00
2023-02-27T07:00:21.673Z,100.00
2023-02-27T07:01:24.894Z,100.00
2023-02-27T07:02:27.512Z,100.00
2023-02-27T07:03:29.128Z,100.00
2023-02-27T07:04:31.740Z,100.00
2023-02-27T07:05:33.394Z,100.00
2023-02-27T07:07:35.850Z,100.00
2023-02-27T07:07:59.291Z,100.00
2023-02-27T07:09:06.857Z,100.00
2023-02-27T07:10:11.617Z,100.00
2023-02-27T07:11:14.231Z,100.00
2023-02-27T07:12:15.909Z,100.00
2023-02-27T07:13:19.694Z,100.00
2023-02-27T07:14:21.659Z,100.00
2023-02-27T07:15:25.583Z,100.00
2023-02-27T07:16:27.488Z,100.00
2023-02-27T07:17:30.251Z,100.00
2023-02-27T07:18:32.086Z,100.00
2023-02-27T07:19:35.900Z,100.00
2023-02-27T07:20:37.566Z,100.00
2023-02-27T07:21:40.146Z,100.00
2023-02-27T07:22:42.769Z,100.00
2023-02-27T07:23:45.361Z,100.00
2023-02-27T07:24:47.020Z,100.00
2023-02-27T07:25:49.602Z,100.00
2023-02-27T07:26:51.261Z,100.00
2023-02-27T07:27:53.905Z,100.00
2023-02-27T07:28:55.519Z,100.00
2023-02-27T07:29:58.128Z,100.00
2023-02-27T07:31:02.201Z,100.00
2023-02-27T07:32:03.952Z,100.00
2023-02-27T07:33:07.076Z,100.00
2023-02-27T07:34:09.624Z,100.00
2023-02-27T07:35:12.743Z,100.00
2023-02-27T07:36:14.345Z,100.00
2023-02-27T07:37:16.994Z,100.00
2023-02-27T07:38:19.132Z,100.00
2023-02-27T07:39:21.729Z,100.00
2023-02-27T07:40:23.341Z,100.00
2023-02-27T07:41:30.616Z,100.00
2023-02-27T07:42:32.833Z,100.00
2023-02-27T07:43:35.436Z,100.00
2023-02-27T07:44:38.135Z,100.00
2023-02-27T07:45:39.758Z,100.00
2023-02-27T07:46:44.643Z,100.00
2023-02-27T07:47:47.335Z,100.00
2023-02-27T07:48:48.977Z,100.00
2023-02-27T07:49:51.550Z,100.00
2023-02-27T07:50:54.144Z,100.00
2023-02-27T07:51:56.251Z,100.00
2023-02-27T07:52:58.874Z,100.00
2023-02-27T07:54:01.444Z,100.00
2023-02-27T07:55:03.086Z,100.00
2023-02-27T07:56:06.271Z,100.00
2023-02-27T07:57:08.874Z,100.00
2023-02-27T07:58:11.464Z,100.00
2023-02-27T07:59:13.110Z,100.00
2023-02-27T08:00:16.493Z,100.00
2023-02-27T08:01:19.080Z,100.00
2023-02-27T08:02:22.091Z,100.00
2023-02-27T08:03:24.721Z,100.00
2023-02-27T08:04:27.347Z,100.00
2023-02-27T08:05:29.050Z,100.00
2023-02-27T08:06:31.644Z,100.00
2023-02-27T08:07:33.261Z,100.00
2023-02-27T08:08:35.926Z,100.00
2023-02-27T08:09:38.495Z,100.00
2023-02-27T08:10:40.095Z,100.00
2023-02-27T08:11:42.673Z,100.00
2023-02-27T08:12:45.812Z,100.00
2023-02-27T08:14:03.287Z,100.00
2023-02-27T08:15:07.245Z,100.00
2023-02-27T08:16:09.857Z,100.00
2023-02-27T08:17:11.466Z,100.00
2023-02-27T08:18:15.425Z,100.00
2023-02-27T08:19:17.063Z,100.00
2023-02-27T08:20:22.586Z,100.00
2023-02-27T08:21:24.306Z,100.00
2023-02-27T08:22:27.023Z,100.00
2023-02-27T08:23:29.614Z,96.99
2023-02-27T08:24:31.246Z,95.08
2023-02-27T08:25:33.889Z,91.39
2023-02-27T08:26:35.541Z,86.38
2023-02-27T08:27:38.165Z,86.48
2023-02-27T08:28:39.854Z,84.38
2023-02-27T08:29:43.265Z,82.50
2023-02-27T08:30:44.889Z,81.03
2023-02-27T08:31:47.809Z,79.66
2023-02-27T08:32:49.439Z,76.08
2023-02-27T08:34:04.271Z,75.89
2023-02-27T08:35:10.780Z,74.93
2023-02-27T08:36:13.425Z,76.64
2023-02-27T08:37:16.059Z,76.65
2023-02-27T08:38:17.662Z,76.47
2023-02-27T08:39:20.438Z,76.29
2023-02-27T08:40:22.077Z,74.83
2023-02-27T08:41:24.704Z,75.03
2023-02-27T08:42:26.991Z,74.21
2023-02-27T08:43:29.619Z,71.11
2023-02-27T08:44:31.228Z,71.42
2023-02-27T08:45:33.856Z,70.61
2023-02-27T08:46:35.544Z,70.80
2023-02-27T08:47:38.172Z,72.82
2023-02-27T08:48:42.168Z,70.65
2023-02-27T08:49:46.100Z,70.28
2023-02-27T08:50:47.771Z,71.41
2023-02-27T08:51:50.416Z,70.61
2023-02-27T08:52:52.983Z,73.25
2023-02-27T08:53:58.753Z,75.31
2023-02-27T08:55:01.337Z,75.64
2023-02-27T08:56:02.933Z,78.09
2023-02-27T08:57:05.554Z,80.56
2023-02-27T08:58:07.373Z,80.96
2023-02-27T08:59:09.988Z,82.59
2023-02-27T09:00:15.112Z,82.15
2023-02-27T09:01:16.818Z,83.19
2023-02-27T09:02:19.549Z,83.94
2023-02-27T09:03:21.374Z,83.81
2023-02-27T09:04:23.976Z,84.50
2023-02-27T09:05:26.924Z,83.93
2023-02-27T09:06:29.892Z,83.08
2023-02-27T09:07:31.726Z,83.05
2023-02-27T09:08:34.336Z,82.67
2023-02-27T09:09:35.946Z,83.06
2023-02-27T09:10:38.557Z,83.50
2023-02-27T09:11:40.262Z,82.83
2023-02-27T09:12:42.926Z,83.49
2023-02-27T09:13:45.241Z,82.21
2023-02-27T09:14:47.849Z,82.80
2023-02-27T09:15:49.497Z,81.92
2023-02-27T09:16:52.147Z,82.15
2023-02-27T09:17:56.371Z,80.85
2023-02-27T09:18:59.006Z,81.13
2023-02-27T09:20:00.742Z,81.67
2023-02-27T09:21:04.871Z,81.33
2023-02-27T09:22:07.444Z,81.59
2023-02-27T09:23:09.071Z,81.56
2023-02-27T09:24:19.803Z,81.07
2023-02-27T09:25:24.077Z,80.47
2023-02-27T09:26:40.055Z,80.59
2023-02-27T09:27:43.440Z,79.83
2023-02-27T09:28:45.063Z,79.44
2023-02-27T09:29:48.897Z,78.77
2023-02-27T09:30:50.547Z,77.64
2023-02-27T09:31:53.387Z,77.60
2023-02-27T09:32:55.048Z,78.95
2023-02-27T09:33:58.187Z,78.83
2023-02-27T09:35:00.414Z,80.18
2023-02-27T09:36:05.629Z,79.30
2023-02-27T09:37:08.244Z,79.54
2023-02-27T09:38:10.394Z,78.81
2023-02-27T09:39:13.026Z,78.67
2023-02-27T09:40:19.903Z,77.92
2023-02-27T09:41:43.201Z,77.86
2023-02-27T09:42:47.592Z,78.30
2023-02-27T09:43:50.141Z,79.10
2023-02-27T09:44:53.310Z,79.01
2023-02-27T09:45:56.385Z,79.09
2023-02-27T09:46:58.035Z,78.23
2023-02-27T09:48:01.493Z,78.39
2023-02-27T09:49:04.755Z,77.29
2023-02-27T09:50:08.887Z,77.47
2023-02-27T09:51:11.840Z,77.55
2023-02-27T09:52:14.472Z,77.85
2023-02-27T09:53:18.672Z,77.85
2023-02-27T09:54:21.279Z,77.42
2023-02-27T09:55:24.005Z,76.51
2023-02-27T09:56:28.194Z,74.86
2023-02-27T09:57:42.046Z,76.81
2023-02-27T09:58:46.779Z,76.37
2023-02-27T09:59:50.643Z,75.40
2023-02-27T10:00:57.192Z,75.88
2023-02-27T10:02:01.298Z,74.78
2023-02-27T10:03:09.147Z,73.49
2023-02-27T10:04:28.675Z,74.92
2023-02-27T10:05:33.079Z,74.76
2023-02-27T10:06:39.845Z,75.47
2023-02-27T10:07:42.785Z,74.93
2023-02-27T10:08:47.187Z,74.60
2023-02-27T10:09:55.597Z,73.88
2023-02-27T10:11:00.897Z,74.65
2023-02-27T10:12:10.957Z,74.78
2023-02-27T10:13:31.433Z,74.76
2023-02-27T10:14:38.692Z,73.39
2023-02-27T10:15:42.829Z,72.64
2023-02-27T10:16:44.540Z,73.66
2023-02-27T10:17:50.054Z,73.02
2023-02-27T10:18:55.269Z,72.16
2023-02-27T10:19:58.199Z,73.03
2023-02-27T10:21:01.556Z,72.58
2023-02-27T10:22:07.590Z,73.37
2023-02-27T10:23:11.881Z,72.77
2023-02-27T10:24:18.530Z,72.84
2023-02-27T10:25:31.233Z,71.89
2023-02-27T10:26:37.465Z,70.92
2023-02-27T10:27:40.059Z,71.54
2023-02-27T10:28:41.680Z,71.21
2023-02-27T10:29:44.306Z,70.24
2023-02-27T10:30:48.812Z,70.03
2023-02-27T10:31:53.577Z,69.71
2023-02-27T10:32:57.737Z,70.39
2023-02-27T10:33:59.351Z,69.66
2023-02-27T10:35:08.457Z,69.35
2023-02-27T10:36:18.021Z,69.74
2023-02-27T10:37:25.732Z,68.65
2023-02-27T10:38:31.303Z,67.73
2023-02-27T10:39:38.735Z,69.33
2023-02-27T10:40:40.543Z,69.18
2023-02-27T10:41:43.198Z,67.31
2023-02-27T10:42:44.995Z,67.35
2023-02-27T10:43:47.589Z,66.91
2023-02-27T10:44:53.467Z,65.63
2023-02-27T10:45:56.300Z,66.76
2023-02-27T10:46:58.903Z,66.89
2023-02-27T10:48:01.573Z,66.79
2023-02-27T10:49:08.248Z,65.93
2023-02-27T10:50:21.826Z,66.30
2023-02-27T10:51:26.511Z,65.27
2023-02-27T10:52:30.654Z,65.10
2023-02-27T10:53:32.254Z,66.30
2023-02-27T10:54:34.880Z,65.11
2023-02-27T10:55:39.106Z,64.53
2023-02-27T10:56:40.855Z,63.42
2023-02-27T10:57:43.685Z,63.60
2023-02-27T10:58:46.280Z,62.41
2023-02-27T10:59:52.291Z,63.35
2023-02-27T11:00:55.716Z,63.02
2023-02-27T11:01:58.274Z,60.23
2023-02-27T11:03:00.962Z,61.46
2023-02-27T11:04:03.556Z,61.64
2023-02-27T11:05:06.207Z,62.36
2023-02-27T11:06:10.640Z,60.70
2023-02-27T11:07:12.446Z,59.54
2023-02-27T11:08:21.601Z,61.78
2023-02-27T11:09:24.450Z,60.30
2023-02-27T11:10:28.151Z,60.20
2023-02-27T11:11:30.864Z,60.70
2023-02-27T11:12:33.254Z,60.38
2023-02-27T11:13:36.581Z,59.59
2023-02-27T11:14:48.160Z,61.69
2023-02-27T11:16:07.117Z,59.41
2023-02-27T11:17:10.112Z,61.54
2023-02-27T11:18:25.868Z,61.29
2023-02-27T11:19:33.478Z,60.76
2023-02-27T11:20:37.537Z,59.69
2023-02-27T11:21:39.160Z,59.04
2023-02-27T11:22:42.631Z,59.04
2023-02-27T11:23:53.593Z,58.37
2023-02-27T11:25:16.607Z,59.78
2023-02-27T11:26:20.887Z,59.38
2023-02-27T11:27:26.535Z,59.42
2023-02-27T11:28:29.714Z,59.75
2023-02-27T11:29:32.360Z,59.43
2023-02-27T11:30:35.611Z,58.34
2023-02-27T11:31:38.652Z,58.55
2023-02-27T11:32:45.239Z,57.99
2023-02-27T11:33:50.786Z,59.11
2023-02-27T11:34:53.485Z,58.20
2023-02-27T11:35:57.745Z,56.31
2023-02-27T11:37:02.219Z,58.05
2023-02-27T11:38:04.661Z,58.20
2023-02-27T11:39:08.762Z,56.40
2023-02-27T11:40:15.635Z,56.31
2023-02-27T11:41:18.712Z,55.07
2023-02-27T11:42:24.781Z,57.13
2023-02-27T11:43:28.412Z,55.92
2023-02-27T11:44:50.370Z,56.26
2023-02-27T11:46:04.413Z,55.47
2023-02-27T11:47:14.582Z,55.72
2023-02-27T11:48:19.462Z,54.91
2023-02-27T11:49:28.164Z,56.16
2023-02-27T11:50:37.730Z,54.63
2023-02-27T11:51:48.007Z,53.74
2023-02-27T11:52:50.760Z,54.69
2023-02-27T11:54:09.388Z,54.25
2023-02-27T11:55:15.901Z,54.31
2023-02-27T11:56:18.743Z,54.24
2023-02-27T11:57:23.600Z,53.56
2023-02-27T11:58:27.902Z,55.25
2023-02-27T11:59:37.732Z,54.53
2023-02-27T12:00:40.574Z,53.31
2023-02-27T12:01:45.924Z,53.25
2023-02-27T12:02:50.058Z,53.92
2023-02-27T12:03:55.935Z,52.83
2023-02-27T12:05:00.695Z,53.29
2023-02-27T12:06:04.822Z,54.48
2023-02-27T12:07:10.911Z,53.00
2023-02-27T12:08:15.625Z,54.30
2023-02-27T12:09:30.529Z,53.93
2023-02-27T12:10:35.987Z,55.97
2023-02-27T12:11:38.878Z,55.00
2023-02-27T12:12:44.152Z,52.74
2023-02-27T12:13:50.568Z,53.70
2023-02-27T12:15:00.541Z,53.01
2023-02-27T12:16:05.029Z,52.94
2023-02-27T12:17:10.720Z,52.70
2023-02-27T12:18:16.530Z,51.88
2023-02-27T12:19:19.511Z,53.34
2023-02-27T12:20:29.065Z,54.82
2023-02-27T12:21:32.689Z,55.05
2023-02-27T12:22:37.398Z,54.74
2023-02-27T12:23:41.943Z,54.73
2023-02-27T12:24:47.125Z,55.96
2023-02-27T12:25:52.590Z,57.73
2023-02-27T12:26:58.190Z,57.36
2023-02-27T12:28:02.541Z,56.29
2023-02-27T12:29:10.070Z,56.77
2023-02-27T12:30:15.017Z,56.43
2023-02-27T12:31:43.567Z,56.84
2023-02-27T12:32:50.145Z,57.88
2023-02-27T12:33:54.431Z,55.45
2023-02-27T12:35:00.227Z,55.81
2023-02-27T12:36:02.789Z,54.55
2023-02-27T12:37:06.546Z,55.64
2023-02-27T12:38:08.360Z,55.85
2023-02-27T12:39:16.214Z,57.09
2023-02-27T12:40:20.974Z,56.35
2023-02-27T12:41:31.174Z,56.78
2023-02-27T12:42:55.174Z,57.68
2023-02-27T12:44:04.009Z,58.40
2023-02-27T12:45:34.130Z,59.13
2023-02-27T12:46:42.919Z,59.35
2023-02-27T12:47:46.696Z,60.56
2023-02-27T12:49:01.679Z,60.08
2023-02-27T12:50:06.351Z,61.15
2023-02-27T12:51:28.566Z,55.50
2023-02-27T12:52:37.408Z,54.54
2023-02-27T12:53:51.779Z,57.00
2023-02-27T12:55:01.412Z,57.65
2023-02-27T12:56:09.215Z,54.88
2023-02-27T12:57:31.838Z,51.68
2023-02-27T12:58:38.236Z,48.98
2023-02-27T13:00:06.997Z,49.00
2023-02-27T13:01:16.469Z,48.32
2023-02-27T13:02:29.732Z,45.78
2023-02-27T13:03:35.439Z,47.45
2023-02-27T13:04:40.110Z,49.23
2023-02-27T13:05:46.928Z,47.91
2023-02-27T13:06:50.090Z,48.35
2023-02-27T13:07:54.401Z,47.92
2023-02-27T13:09:21.832Z,52.34
2023-02-27T13:10:24.729Z,52.52
2023-02-27T13:11:35.406Z,51.71
2023-02-27T13:12:40.137Z,50.19
2023-02-27T13:13:42.804Z,51.92
2023-02-27T13:14:48.113Z,51.32
2023-02-27T13:15:52.419Z,50.44
2023-02-27T13:16:56.295Z,49.94
2023-02-27T13:18:00.345Z,50.03
2023-02-27T13:19:06.047Z,49.78
2023-02-27T13:20:17.726Z,49.43
2023-02-27T13:21:22.133Z,46.74
2023-02-27T13:22:30.008Z,49.28
2023-02-27T13:23:33.653Z,47.54
2023-02-27T13:24:43.946Z,47.55
2023-02-27T13:25:50.800Z,50.88
2023-02-27T13:26:58.723Z,51.60
2023-02-27T13:28:02.168Z,52.19
2023-02-27T13:29:03.954Z,49.36
2023-02-27T13:30:14.255Z,50.38
2023-02-27T13:31:20.038Z,51.79
2023-02-27T13:32:36.528Z,52.82
2023-02-27T13:33:48.731Z,50.34
2023-02-27T13:34:52.692Z,48.48
2023-02-27T13:35:57.841Z,46.08
2023-02-27T13:37:02.852Z,48.36
2023-02-27T13:38:31.874Z,47.42
2023-02-27T13:39:43.789Z,46.00
2023-02-27T13:40:46.420Z,46.41
2023-02-27T13:41:48.064Z,46.45